Caribou, Maine
Current Conditions -  °F | °C
As of 8:54 AM on Wednesday 22 Oct 2014 (Local Time) from KCAR Reporting Station
Clear Clear  
Wind Chill: 31°   Ceiling: Unl
Heat Index: 38°   Visibility: 10mi
Dew Point: 31°   Wind: 9mph
Humidity: 76%   Direction: 30°NNE
Pressure: 30.38"   Gusts: NA
Location:  46.86°N, 68.01°W
Report Text: KCAR 221254Z AUTO 03008KT 10SM CLR 03/M01 A3038 RMK AO2 SLP298 T00331006
Loading
Personal Weather Stations






























Interactive Weather Map
Tropical Storm Tracking
New forecast layout! Learn more

10-Day Weather Forecast

Advertisements
Track Severe Weather on mobile